Time;durP1;ratioP1;P1;durP2;ratioP2;P2;SDS_P1;SDS_P2;PMS_P1;PMS_P2;Temp;Humidity;BMP_temperature;BMP_pressure;BME280_temperature;BME280_humidity;BME280_pressure;Samples;Min_cycle;Max_cycle;Signal;HPM_P1;HPM_P2
2023/05/15 00:01:23;;;;;;;1.67;1.58;;;;;;;20.18;52.19;96328.94;10411602;28;20351;-56
2023/05/15 00:06:43;;;;;;;1.75;1.60;;;;;;;20.17;52.23;96318.47;10392625;28;20049;-56
2023/05/15 00:12:03;;;;;;;2.55;1.63;;;;;;;20.18;52.13;96318.13;10392403;28;20100;-56
2023/05/15 00:17:24;;;;;;;2.00;1.70;;;;;;;20.16;52.09;96309.56;10402740;28;20057;-56
2023/05/15 00:22:44;;;;;;;1.92;1.67;;;;;;;20.16;52.14;96306.88;10405132;28;20049;-56
2023/05/15 00:28:03;;;;;;;2.80;1.90;;;;;;;20.14;52.10;96298.31;10393918;28;20072;-56
2023/05/15 00:33:23;;;;;;;2.88;1.73;;;;;;;20.12;52.12;96287.03;10396593;28;20406;-56
2023/05/15 00:38:42;;;;;;;2.08;1.85;;;;;;;20.12;51.89;96289.75;10401684;28;20057;-56
2023/05/15 00:44:02;;;;;;;1.75;1.50;;;;;;;20.11;52.10;96288.16;10403941;28;20058;-56
2023/05/15 00:49:22;;;;;;;2.10;1.50;;;;;;;20.10;52.02;96276.56;10386382;28;20054;-56
2023/05/15 00:54:42;;;;;;;1.63;1.30;;;;;;;20.09;52.05;96271.47;10409427;28;20410;-56
2023/05/15 01:00:05;;;;;;;2.30;1.60;;;;;;;20.08;52.02;96278.81;10389688;28;20065;-56
2023/05/15 01:05:25;;;;;;;1.75;1.40;;;;;;;20.08;52.03;96267.22;10379632;28;20057;-56
2023/05/15 01:10:46;;;;;;;2.83;1.30;;;;;;;20.07;52.04;96266.44;10397788;28;20046;-56
2023/05/15 01:16:06;;;;;;;2.55;1.63;;;;;;;20.06;52.03;96267.56;10415031;28;20061;-56
2023/05/15 01:21:36;;;;;;;1.90;1.70;;;;;;;20.07;51.96;96271.03;10408960;28;20068;-56
2023/05/15 01:27:18;;;;;;;1.92;1.63;;;;;;;20.05;52.02;96257.88;10403074;28;20042;-56
2023/05/15 01:32:46;;;;;;;1.83;1.60;;;;;;;20.04;51.96;96255.50;10398943;28;20108;-56
2023/05/15 01:38:21;;;;;;;1.73;1.50;;;;;;;20.03;52.00;96252.03;10412562;28;20037;-56
2023/05/15 01:43:44;;;;;;;1.65;1.50;;;;;;;20.02;51.96;96249.66;10406352;28;20049;-56
2023/05/15 01:49:08;;;;;;;2.28;1.40;;;;;;;20.03;52.03;96253.91;10374318;28;20062;-56
2023/05/15 01:54:28;;;;;;;1.83;1.60;;;;;;;20.01;51.81;96242.66;10386552;28;20057;-56
2023/05/15 01:59:49;;;;;;;2.45;1.40;;;;;;;20.01;51.89;96248.06;10391969;28;20038;-56
2023/05/15 02:05:08;;;;;;;1.60;1.30;;;;;;;19.99;51.83;96231.41;10392113;28;20049;-56
2023/05/15 02:10:29;;;;;;;2.63;1.40;;;;;;;19.99;51.89;96231.41;10414488;28;20049;-56
2023/05/15 02:15:49;;;;;;;1.50;1.40;;;;;;;19.98;51.90;96227.91;10409185;28;20044;-56
2023/05/15 02:21:09;;;;;;;1.63;1.30;;;;;;;19.98;51.91;96221.72;10383196;28;20062;-56
2023/05/15 02:26:50;;;;;;;1.75;1.38;;;;;;;19.97;52.05;96212.03;10415177;28;20049;-56
2023/05/15 02:32:38;;;;;;;1.80;1.27;;;;;;;19.95;51.92;96201.53;10395773;28;20049;-56
2023/05/15 02:38:01;;;;;;;1.63;1.50;;;;;;;19.95;51.84;96206.94;10391778;28;20045;-56
2023/05/15 02:43:21;;;;;;;2.00;1.40;;;;;;;19.94;51.79;96195.38;10386351;28;20131;-56
2023/05/15 02:48:41;;;;;;;1.45;1.35;;;;;;;19.93;51.81;96195.69;10384853;28;20061;-56
2023/05/15 02:54:00;;;;;;;1.42;1.13;;;;;;;19.92;51.79;96184.09;10410848;28;20041;-56
2023/05/15 02:59:20;;;;;;;1.58;1.20;;;;;;;19.92;51.79;96180.63;10390629;28;20049;-56
2023/05/15 03:04:40;;;;;;;1.90;1.30;;;;;;;19.91;51.85;96185.22;10407684;28;20037;-56
2023/05/15 03:09:59;;;;;;;1.75;1.30;;;;;;;19.91;51.76;96182.50;10394371;28;20068;-56
2023/05/15 03:15:19;;;;;;;1.30;1.10;;;;;;;19.89;51.77;96168.56;10417660;28;20048;-56
2023/05/15 03:20:38;;;;;;;1.20;1.10;;;;;;;19.89;51.87;96173.97;10396394;28;20038;-56
2023/05/15 03:25:57;;;;;;;1.77;1.25;;;;;;;19.88;51.88;96161.59;10391499;28;20139;-56
2023/05/15 03:31:17;;;;;;;1.30;1.20;;;;;;;19.88;51.78;96160.81;10387234;28;20502;-56
2023/05/15 03:36:37;;;;;;;1.02;0.95;;;;;;;19.87;51.82;96160.00;10411872;28;20504;-56
2023/05/15 03:41:57;;;;;;;1.58;1.35;;;;;;;19.85;51.79;96151.44;10403141;28;20038;-56
2023/05/15 03:47:17;;;;;;;1.30;1.20;;;;;;;19.85;51.77;96146.03;10404860;28;20042;-56
2023/05/15 03:52:36;;;;;;;1.17;1.10;;;;;;;19.84;51.80;96144.47;10404277;28;20486;-56
2023/05/15 03:57:58;;;;;;;2.00;1.30;;;;;;;19.83;51.85;96137.50;10395044;28;20045;-56
2023/05/15 04:03:18;;;;;;;2.05;1.75;;;;;;;19.84;52.13;96138.28;10417574;28;20532;-56
2023/05/15 04:08:37;;;;;;;1.50;1.40;;;;;;;19.83;52.61;96140.19;10419344;28;20034;-56
2023/05/15 04:13:57;;;;;;;1.98;1.27;;;;;;;19.83;52.52;96136.69;10394498;28;20407;-56
2023/05/15 04:19:16;;;;;;;1.90;1.20;;;;;;;19.82;52.63;96135.94;10410492;28;20046;-56
2023/05/15 04:24:35;;;;;;;2.03;1.40;;;;;;;19.82;52.71;96130.53;10409465;28;20037;-55
2023/05/15 04:29:55;;;;;;;1.83;1.40;;;;;;;19.83;52.73;96115.09;10402007;28;20052;-55
2023/05/15 04:35:14;;;;;;;1.30;1.20;;;;;;;19.84;52.79;96127.47;10396621;28;20076;-55
2023/05/15 04:40:34;;;;;;;0.80;0.80;;;;;;;19.84;52.80;96122.84;10407539;28;20088;-55
2023/05/15 04:45:53;;;;;;;1.70;1.35;;;;;;;19.84;52.96;96117.44;10401560;28;20041;-55
2023/05/15 04:51:13;;;;;;;2.63;1.20;;;;;;;19.85;52.84;96110.91;10381046;28;20050;-55
2023/05/15 04:56:33;;;;;;;2.25;1.35;;;;;;;19.84;52.85;96114.75;10388174;28;20132;-55
2023/05/15 05:01:53;;;;;;;3.63;1.60;;;;;;;19.86;52.70;96109.00;10389488;28;20042;-55
2023/05/15 05:07:13;;;;;;;5.75;2.05;;;;;;;19.86;52.79;96109.00;10379297;28;20081;-55
2023/05/15 05:12:32;;;;;;;13.20;3.60;;;;;;;19.86;52.88;96107.09;10393211;28;20056;-55
2023/05/15 05:17:52;;;;;;;12.55;3.70;;;;;;;19.86;52.77;96098.97;10408541;28;20486;-55
2023/05/15 05:23:13;;;;;;;13.75;3.97;;;;;;;19.86;52.93;96096.28;10404645;28;20049;-55
2023/05/15 05:28:33;;;;;;;12.73;3.78;;;;;;;19.87;52.83;96091.66;10394640;28;20517;-55
2023/05/15 05:33:52;;;;;;;15.80;3.80;;;;;;;19.89;52.80;96095.56;10391342;28;20410;-55
2023/05/15 05:39:12;;;;;;;10.90;3.80;;;;;;;19.89;52.88;96095.56;10416537;28;20046;-55
2023/05/15 05:44:33;;;;;;;10.75;3.72;;;;;;;19.90;52.91;96094.44;10399009;28;20045;-55
2023/05/15 05:49:53;;;;;;;10.52;3.80;;;;;;;19.92;52.89;96092.19;10404426;28;20054;-56
2023/05/15 05:55:14;;;;;;;16.65;4.13;;;;;;;19.93;52.89;96096.47;10390468;28;20046;-55
2023/05/15 06:00:33;;;;;;;15.50;4.60;;;;;;;19.95;52.77;96090.72;10391384;28;20053;-55
2023/05/15 06:05:52;;;;;;;11.77;4.00;;;;;;;19.95;52.72;96080.69;10391276;28;20486;-55
2023/05/15 06:11:12;;;;;;;12.70;3.63;;;;;;;19.98;52.75;96086.56;10384248;28;20081;-55
2023/05/15 06:16:31;;;;;;;10.73;3.42;;;;;;;20.00;52.68;96076.19;10393914;28;20061;-55
2023/05/15 06:21:52;;;;;;;16.35;3.50;;;;;;;20.02;52.83;96076.63;10412720;28;20034;-55
2023/05/15 06:27:11;;;;;;;12.95;4.20;;;;;;;20.05;52.63;96084.03;10393300;28;20044;-55
2023/05/15 06:32:32;;;;;;;6.45;3.00;;;;;;;20.06;52.42;96077.50;10403741;28;20049;-55
2023/05/15 06:37:52;;;;;;;12.02;3.38;;;;;;;20.08;52.62;96077.94;10426512;28;20041;-55
2023/05/15 06:43:11;;;;;;;8.30;3.17;;;;;;;20.10;52.49;96072.97;10416951;28;20402;-55
2023/05/15 06:48:31;;;;;;;9.68;3.53;;;;;;;20.11;52.49;96077.22;10380580;28;20058;-55
2023/05/15 06:53:50;;;;;;;11.38;3.05;;;;;;;20.14;52.51;96077.34;10415200;28;20514;-55
2023/05/15 06:59:10;;;;;;;8.45;3.10;;;;;;;20.15;52.44;96073.50;10386293;28;20096;-55
2023/05/15 07:04:32;;;;;;;8.30;3.25;;;;;;;20.19;52.42;96073.63;10386179;28;20064;-55
2023/05/15 07:09:51;;;;;;;7.35;2.95;;;;;;;20.22;52.43;96066.72;10412580;28;20057;-55
2023/05/15 07:15:11;;;;;;;9.95;2.95;;;;;;;20.25;52.45;96071.44;10400298;28;20038;-55
2023/05/15 07:20:31;;;;;;;8.57;3.20;;;;;;;20.26;52.33;96062.19;10385821;28;20042;-55
2023/05/15 07:25:52;;;;;;;8.77;3.55;;;;;;;20.28;52.33;96066.09;10402877;28;20061;-55
2023/05/15 07:31:12;;;;;;;7.80;3.00;;;;;;;20.31;52.25;96070.84;10411343;28;20037;-55
2023/05/15 07:36:32;;;;;;;6.45;2.97;;;;;;;20.33;52.19;96067.78;10397509;28;20057;-55
2023/05/15 07:41:51;;;;;;;6.75;2.92;;;;;;;20.35;52.22;96065.53;10407707;28;20045;-55
2023/05/15 07:47:10;;;;;;;6.93;3.05;;;;;;;20.38;52.25;96069.44;10379899;28;20104;-55
2023/05/15 07:52:30;;;;;;;7.13;2.90;;;;;;;20.40;52.12;96064.47;10396248;28;20037;-55
2023/05/15 07:57:50;;;;;;;8.82;3.22;;;;;;;20.42;52.12;96070.31;10432569;28;20041;-55
2023/05/15 08:03:10;;;;;;;5.85;2.88;;;;;;;20.44;52.17;96073.47;10411648;28;20036;-56
2023/05/15 08:08:30;;;;;;;6.30;2.80;;;;;;;20.47;52.10;96067.38;10428445;28;20045;-55
2023/05/15 08:13:50;;;;;;;6.13;2.63;;;;;;;20.50;51.89;96066.66;10412523;28;20046;-55
2023/05/15 08:19:09;;;;;;;6.43;2.95;;;;;;;20.50;52.04;96070.19;10432010;28;20544;-55
2023/05/15 08:24:28;;;;;;;6.53;2.80;;;;;;;20.52;51.95;96072.50;10411963;28;20446;-55
2023/05/15 08:29:48;;;;;;;5.40;2.63;;;;;;;20.54;51.91;96076.47;10391298;28;20410;-55
2023/05/15 08:35:08;;;;;;;5.03;2.58;;;;;;;20.55;51.91;96072.59;10392154;28;20406;-55
2023/05/15 08:40:27;;;;;;;5.03;2.47;;;;;;;20.59;51.85;96080.03;10431264;28;20099;-55
2023/05/15 08:45:48;;;;;;;5.40;2.67;;;;;;;20.61;51.81;96085.91;10419363;28;20041;-55
2023/05/15 08:51:09;;;;;;;5.57;2.53;;;;;;;20.63;51.81;96086.34;10389420;28;20050;-55
2023/05/15 08:56:29;;;;;;;5.60;2.90;;;;;;;20.64;51.67;96088.72;10430053;28;20041;-55
2023/05/15 09:01:49;;;;;;;5.00;2.72;;;;;;;20.65;51.79;96094.91;10430640;28;20042;-55
2023/05/15 09:07:09;;;;;;;5.93;2.50;;;;;;;20.66;51.75;96097.28;10429889;28;20041;-55
2023/05/15 09:12:31;;;;;;;6.22;2.80;;;;;;;20.66;51.41;96099.97;10404448;28;20045;-55
2023/05/15 09:17:51;;;;;;;4.10;2.70;;;;;;;20.68;51.72;96102.31;10388285;28;20049;-55
2023/05/15 09:23:25;;;;;;;4.63;2.33;;;;;;;20.69;51.65;96101.19;10398829;28;20037;-55
2023/05/15 09:28:45;;;;;;;5.10;2.25;;;;;;;20.69;51.66;96099.28;10389280;28;20038;-55
2023/05/15 09:34:05;;;;;;;6.63;2.33;;;;;;;20.70;51.71;96111.69;10416323;28;20120;-56
2023/05/15 09:39:25;;;;;;;3.95;2.13;;;;;;;20.70;51.85;96122.50;10428108;28;20042;-55
2023/05/15 09:44:45;;;;;;;5.18;2.10;;;;;;;20.72;51.65;96122.94;10428301;28;20044;-55
2023/05/15 09:50:05;;;;;;;3.60;2.10;;;;;;;20.72;51.81;96122.94;10421235;28;20046;-55
2023/05/15 09:55:26;;;;;;;4.45;2.22;;;;;;;20.72;51.69;96122.16;10397942;28;20383;-55
2023/05/15 10:00:46;;;;;;;4.50;2.28;;;;;;;20.73;51.65;96138.03;10390710;28;20042;-55
2023/05/15 10:06:06;;;;;;;4.47;2.25;;;;;;;20.72;51.74;96141.13;10402146;28;20049;-55
2023/05/15 10:11:26;;;;;;;3.95;2.20;;;;;;;20.73;51.64;96138.03;10427320;28;20045;-55
2023/05/15 10:16:45;;;;;;;5.50;2.08;;;;;;;20.76;51.63;96150.13;10414342;28;20052;-55
2023/05/15 10:22:04;;;;;;;4.93;2.30;;;;;;;20.74;51.68;96147.75;10402451;28;20045;-55
2023/05/15 10:27:26;;;;;;;2.97;2.10;;;;;;;20.75;51.76;96140.41;10387118;28;20507;-55
2023/05/15 10:32:47;;;;;;;3.35;1.92;;;;;;;20.75;51.67;96140.41;10408507;28;20045;-55
2023/05/15 10:38:08;;;;;;;5.72;2.20;;;;;;;20.74;51.74;96131.50;10425587;28;20559;-55
2023/05/15 10:43:27;;;;;;;3.88;2.35;;;;;;;20.73;51.56;96129.91;10424606;28;20048;-55
2023/05/15 10:48:47;;;;;;;2.60;1.80;;;;;;;20.73;51.75;96127.22;10396525;28;20084;-55
2023/05/15 10:54:08;;;;;;;2.30;1.88;;;;;;;20.74;51.75;96126.09;10397402;28;20121;-55
2023/05/15 10:59:32;;;;;;;2.80;1.73;;;;;;;20.76;51.78;96127.66;10400984;28;20076;-55
2023/05/15 11:04:56;;;;;;;2.85;1.85;;;;;;;20.74;51.75;96122.59;10425802;28;20042;-55
2023/05/15 11:10:27;;;;;;;3.72;1.80;;;;;;;20.74;51.77;96125.31;10431932;28;20048;-55
2023/05/15 11:15:47;;;;;;;3.00;2.00;;;;;;;20.76;51.76;96116.81;10424402;28;20494;-55
2023/05/15 11:21:07;;;;;;;3.45;1.73;;;;;;;20.74;51.89;96115.25;10394115;28;20042;-55
2023/05/15 11:26:32;;;;;;;2.50;1.60;;;;;;;20.76;51.93;96108.69;10393744;28;20494;-55
2023/05/15 11:31:52;;;;;;;4.15;1.90;;;;;;;20.77;51.90;96102.94;10403260;28;20056;-55
2023/05/15 11:37:18;;;;;;;4.10;1.90;;;;;;;20.78;51.87;96103.72;10418948;28;20041;-55
2023/05/15 11:42:37;;;;;;;2.92;1.70;;;;;;;20.78;51.87;96106.44;10397862;28;20494;-55
2023/05/15 11:47:59;;;;;;;3.42;1.88;;;;;;;20.78;51.95;96107.25;10393680;28;20042;-55
2023/05/15 11:53:20;;;;;;;3.30;2.03;;;;;;;20.77;52.00;96102.16;10392738;28;20050;-55
2023/05/15 11:58:41;;;;;;;3.25;1.80;;;;;;;20.77;51.88;96104.88;10426462;28;20041;-55
2023/05/15 12:04:01;;;;;;;2.53;1.58;;;;;;;20.75;51.97;96088.97;10419670;28;20079;-55
2023/05/15 12:09:26;;;;;;;3.53;1.58;;;;;;;20.76;51.85;96082.44;10419441;28;20046;-55
2023/05/15 12:14:45;;;;;;;2.72;1.58;;;;;;;20.76;51.92;96076.22;10397280;28;20054;-55
2023/05/15 12:20:07;;;;;;;3.17;1.70;;;;;;;20.75;51.94;96075.44;10402634;28;20053;-55
2023/05/15 12:25:27;;;;;;;2.35;1.45;;;;;;;20.76;52.03;96078.94;10404588;28;20049;-55
2023/05/15 12:30:46;;;;;;;3.65;1.88;;;;;;;20.75;52.09;96072.72;10431315;28;20042;-55
2023/05/15 12:36:07;;;;;;;2.38;1.48;;;;;;;20.74;52.13;96066.53;10431143;28;20045;-55
2023/05/15 12:41:30;;;;;;;2.78;1.60;;;;;;;20.74;52.12;96066.53;10428800;28;20030;-55
2023/05/15 12:46:53;;;;;;;2.40;1.63;;;;;;;20.74;52.11;96050.31;10411900;28;20052;-55
2023/05/15 12:52:14;;;;;;;1.95;1.48;;;;;;;20.76;52.16;96046.44;10388730;28;20058;-55
2023/05/15 12:57:35;;;;;;;2.13;1.30;;;;;;;20.76;52.29;96055.38;10414381;28;20053;-55
2023/05/15 13:02:56;;;;;;;2.42;1.63;;;;;;;20.77;52.17;96048.81;10390431;28;20049;-55
2023/05/15 13:08:17;;;;;;;1.38;1.27;;;;;;;20.77;52.11;96059.63;10392220;28;20107;-55
2023/05/15 13:13:45;;;;;;;2.53;1.50;;;;;;;20.76;52.08;96057.28;10429461;28;20068;-55
2023/05/15 13:19:05;;;;;;;3.37;1.57;;;;;;;20.74;52.16;96046.81;10417356;28;20080;-55
2023/05/15 13:24:25;;;;;;;2.13;1.40;;;;;;;20.74;52.17;96042.19;10429343;28;20041;-55
2023/05/15 13:29:45;;;;;;;2.47;1.48;;;;;;;20.74;52.30;96044.88;10407444;28;20042;-55
2023/05/15 13:35:05;;;;;;;1.73;1.50;;;;;;;20.73;52.34;96040.59;10383681;28;20041;-55
2023/05/15 13:40:24;;;;;;;3.03;1.42;;;;;;;20.73;52.34;96027.06;10402372;28;20460;-55
2023/05/15 13:45:44;;;;;;;2.70;1.50;;;;;;;20.73;52.31;96037.13;10390574;28;20049;-55
2023/05/15 13:51:04;;;;;;;2.15;1.30;;;;;;;20.75;52.34;96034.84;10380649;28;20418;-55
2023/05/15 13:56:23;;;;;;;2.40;1.42;;;;;;;20.73;52.26;96047.94;10388240;28;20073;-55
2023/05/15 14:01:43;;;;;;;2.40;1.30;;;;;;;20.72;52.45;96049.09;10390963;28;20038;-55
2023/05/15 14:07:03;;;;;;;1.88;1.20;;;;;;;20.72;52.26;96052.56;10402340;28;20053;-55
2023/05/15 14:12:22;;;;;;;2.38;1.50;;;;;;;20.72;52.33;96060.69;10414669;28;20099;-55
2023/05/15 14:17:42;;;;;;;3.42;2.45;;;;;;;20.71;49.69;96061.03;10406639;28;20046;-55
2023/05/15 14:23:02;;;;;;;3.15;2.60;;;;;;;20.64;47.78;96068.97;10413791;28;20040;-56
2023/05/15 14:28:21;;;;;;;3.97;2.90;;;;;;;20.57;47.53;96068.78;10392834;28;20494;-55
2023/05/15 14:33:40;;;;;;;3.83;2.80;;;;;;;20.56;47.67;96073.38;10410545;28;20053;-56
2023/05/15 14:39:00;;;;;;;4.43;3.00;;;;;;;20.57;47.40;96064.16;10401579;28;20042;-54
2023/05/15 14:44:19;;;;;;;4.57;3.13;;;;;;;20.51;47.57;96071.72;10425830;28;20041;-54
2023/05/15 14:49:39;;;;;;;3.72;3.10;;;;;;;20.41;47.95;96066.84;10409562;28;20054;-55
2023/05/15 14:54:58;;;;;;;4.60;3.20;;;;;;;20.28;46.61;96070.75;10400875;28;20445;-54
2023/05/15 15:00:17;;;;;;;3.83;3.40;;;;;;;20.11;46.89;96067.22;10379454;28;20112;-54
2023/05/15 15:05:37;;;;;;;3.78;3.10;;;;;;;20.16;46.57;96068.88;10410207;28;20037;-55
2023/05/15 15:10:57;;;;;;;3.13;2.83;;;;;;;20.24;47.12;96075.28;10399662;28;20057;-55
2023/05/15 15:16:16;;;;;;;3.13;2.80;;;;;;;20.31;47.11;96080.88;10404741;28;20061;-53
2023/05/15 15:21:36;;;;;;;3.88;3.30;;;;;;;20.35;46.88;96087.16;10412308;28;20057;-53
2023/05/15 15:26:55;;;;;;;3.53;2.90;;;;;;;20.39;47.03;96087.28;10421272;28;20095;-54
2023/05/15 15:32:15;;;;;;;5.63;3.35;;;;;;;20.38;47.18;96085.69;10398344;28;20486;-54
2023/05/15 15:37:36;;;;;;;4.20;3.40;;;;;;;20.38;46.78;96091.88;10412515;28;20131;-54
2023/05/15 15:42:56;;;;;;;3.83;3.25;;;;;;;20.39;46.81;96090.75;10424307;28;20038;-54
2023/05/15 15:48:17;;;;;;;3.47;3.10;;;;;;;20.39;47.20;96100.78;10423330;28;20410;-54
2023/05/15 15:53:37;;;;;;;5.03;3.50;;;;;;;20.38;47.09;96091.09;10415331;28;20052;-55
2023/05/15 15:58:57;;;;;;;3.55;3.25;;;;;;;20.38;47.15;96091.09;10415841;28;20041;-55
2023/05/15 16:04:16;;;;;;;7.18;3.35;;;;;;;20.37;46.46;96092.25;10432329;28;20490;-55
2023/05/15 16:09:35;;;;;;;6.22;3.13;;;;;;;20.37;45.90;96084.91;10432213;28;20045;-55
2023/05/15 16:14:55;;;;;;;3.97;3.38;;;;;;;20.35;45.82;96085.25;10432038;28;20510;-56
2023/05/15 16:20:14;;;;;;;4.20;3.38;;;;;;;20.35;46.12;96087.16;10405935;28;20048;-55
2023/05/15 16:25:35;;;;;;;4.05;3.33;;;;;;;20.35;46.20;96087.16;10377791;28;20042;-55
2023/05/15 16:30:55;;;;;;;4.43;3.35;;;;;;;20.32;46.51;96094.03;10391284;28;20680;-55
2023/05/15 16:36:15;;;;;;;3.53;3.10;;;;;;;20.32;46.80;96091.34;10390649;28;20128;-55
2023/05/15 16:41:35;;;;;;;4.32;3.00;;;;;;;20.34;47.13;96088.28;10412175;28;20049;-55
2023/05/15 16:46:55;;;;;;;4.53;3.20;;;;;;;20.38;47.93;96096.50;10421994;28;20492;-54
2023/05/15 16:52:14;;;;;;;4.03;2.97;;;;;;;20.39;48.51;96093.47;10383782;28;20054;-55
2023/05/15 16:57:34;;;;;;;3.85;3.42;;;;;;;20.40;49.22;96105.06;10377325;28;20054;-54
2023/05/15 17:02:54;;;;;;;6.22;2.90;;;;;;;20.40;49.76;96111.25;10397452;28;20103;-55
2023/05/15 17:08:13;;;;;;;5.03;3.42;;;;;;;20.43;50.11;96110.56;10416562;28;20041;-54
2023/05/15 17:13:32;;;;;;;5.40;3.50;;;;;;;20.47;50.15;96108.75;10425707;28;20403;-55
2023/05/15 17:18:51;;;;;;;4.03;2.13;;;;;;;20.47;50.14;96110.66;10419979;28;20042;-55
2023/05/15 17:24:11;;;;;;;9.48;2.85;;;;;;;20.45;50.66;96110.22;10429454;28;20046;-55
2023/05/15 17:29:31;;;;;;;5.22;3.10;;;;;;;20.45;50.77;96110.22;10428934;28;20041;-55
2023/05/15 17:34:50;;;;;;;5.28;3.10;;;;;;;20.45;51.11;96118.34;10410356;28;20529;-55
2023/05/15 17:40:10;;;;;;;4.75;2.90;;;;;;;20.43;51.08;96121.38;10423530;28;20077;-55
2023/05/15 17:45:29;;;;;;;4.78;3.15;;;;;;;20.43;51.25;96131.44;10415369;28;20100;-55
2023/05/15 17:50:49;;;;;;;4.88;2.90;;;;;;;20.42;51.26;96130.63;10378111;28;20084;-56
2023/05/15 17:56:08;;;;;;;4.90;2.72;;;;;;;20.42;51.34;96135.25;10408749;28;20514;-55
2023/05/15 18:01:29;;;;;;;4.03;2.05;;;;;;;20.40;51.28;96159.16;10405765;28;20045;-55
2023/05/15 18:06:48;;;;;;;5.40;2.97;;;;;;;20.41;51.21;96160.75;10402051;28;20041;-55
2023/05/15 18:12:08;;;;;;;3.40;2.80;;;;;;;20.41;51.52;96176.97;10389591;28;20054;-54
2023/05/15 18:17:28;;;;;;;4.60;2.92;;;;;;;20.42;51.66;96178.53;10406456;28;20478;-54
2023/05/15 18:22:48;;;;;;;3.63;3.17;;;;;;;20.41;51.86;96183.16;10393725;28;20053;-54
2023/05/15 18:28:08;;;;;;;4.72;3.15;;;;;;;20.40;52.08;96189.69;10397232;28;20067;-54
2023/05/15 18:33:27;;;;;;;3.03;2.17;;;;;;;20.39;52.14;96192.78;10414381;28;20045;-54
2023/05/15 18:38:47;;;;;;;4.53;2.70;;;;;;;20.37;52.69;96190.41;10400294;28;20052;-54
2023/05/15 18:44:07;;;;;;;3.28;2.70;;;;;;;20.38;52.62;96207.41;10426009;28;20037;-54
2023/05/15 18:49:28;;;;;;;3.85;3.38;;;;;;;20.35;52.53;96215.09;10403287;28;20450;-54
2023/05/15 18:54:47;;;;;;;4.07;2.97;;;;;;;20.32;52.61;96218.47;10426350;28;20044;-55
2023/05/15 19:00:07;;;;;;;4.47;2.90;;;;;;;20.32;52.48;96218.47;10397549;28;20049;-56
2023/05/15 19:05:27;;;;;;;4.65;3.38;;;;;;;20.31;53.21;96225.03;10400951;28;20155;-55
2023/05/15 19:10:47;;;;;;;6.10;3.70;;;;;;;20.31;53.17;96219.63;10389919;28;20073;-55
2023/05/15 19:16:09;;;;;;;4.57;3.85;;;;;;;20.31;53.27;96226.94;10396016;28;20042;-55
2023/05/15 19:21:28;;;;;;;3.65;3.35;;;;;;;20.32;53.49;96228.50;10404909;28;20038;-55
2023/05/15 19:26:48;;;;;;;3.88;3.22;;;;;;;20.32;53.59;96228.50;10397585;28;20038;-55
2023/05/15 19:32:07;;;;;;;4.45;3.08;;;;;;;20.31;53.77;96230.44;10418636;28;20067;-55
2023/05/15 19:37:27;;;;;;;4.30;2.72;;;;;;;20.32;53.91;96233.91;10420345;28;20553;-55
2023/05/15 19:42:47;;;;;;;4.25;3.10;;;;;;;20.32;53.95;96245.50;10431974;28;20037;-55
2023/05/15 19:48:07;;;;;;;7.50;3.85;;;;;;;20.32;54.34;96237.41;10417065;28;20437;-54
2023/05/15 19:53:27;;;;;;;5.07;3.63;;;;;;;20.31;54.43;96243.19;10397334;28;20069;-56
2023/05/15 19:58:47;;;;;;;6.63;3.92;;;;;;;20.32;54.69;96244.75;10419620;28;20037;-55
2023/05/15 20:04:07;;;;;;;7.22;3.60;;;;;;;20.33;55.15;96252.50;10379392;28;20054;-55
2023/05/15 20:09:26;;;;;;;16.67;5.15;;;;;;;20.32;55.40;96256.34;10395341;28;20041;-54
2023/05/15 20:14:50;;;;;;;16.95;5.88;;;;;;;20.32;55.59;96259.03;10412801;28;20049;-54
2023/05/15 20:20:10;;;;;;;17.63;5.80;;;;;;;20.31;55.73;96248.59;10431958;28;20042;-54
2023/05/15 20:25:30;;;;;;;20.25;6.10;;;;;;;20.32;55.94;96260.97;10407349;28;20505;-54
2023/05/15 20:30:51;;;;;;;18.77;5.82;;;;;;;20.30;55.64;96255.09;10416949;28;20384;-54
2023/05/15 20:36:11;;;;;;;20.70;6.30;;;;;;;20.30;56.19;96261.31;10412257;28;20048;-55
2023/05/15 20:41:30;;;;;;;24.67;6.68;;;;;;;20.31;56.30;96264.81;10397714;28;20405;-54
2023/05/15 20:46:50;;;;;;;15.13;6.13;;;;;;;20.31;56.35;96265.59;10391030;28;20045;-54
2023/05/15 20:52:10;;;;;;;19.33;6.25;;;;;;;20.30;56.47;96257.81;10411086;28;20053;-54
2023/05/15 20:57:30;;;;;;;20.42;6.05;;;;;;;20.29;56.71;96267.84;10430611;28;20041;-54
2023/05/15 21:02:50;;;;;;;18.85;6.18;;;;;;;20.30;57.20;96264.00;10417369;28;20054;-54
2023/05/15 21:08:09;;;;;;;19.33;6.78;;;;;;;20.30;57.24;96261.31;10414961;28;20037;-54
2023/05/15 21:13:29;;;;;;;22.38;6.68;;;;;;;20.29;57.66;96267.84;10402396;28;20056;-54
2023/05/15 21:18:48;;;;;;;17.08;6.57;;;;;;;20.31;57.65;96257.47;10424506;28;20041;-54
2023/05/15 21:24:08;;;;;;;18.17;6.55;;;;;;;20.31;57.84;96259.41;10414270;28;20037;-54
2023/05/15 21:29:28;;;;;;;17.80;6.20;;;;;;;20.31;57.90;96252.06;10429102;28;20042;-54
2023/05/15 21:34:48;;;;;;;20.35;6.32;;;;;;;20.32;57.93;96260.97;10412885;28;20058;-53
2023/05/15 21:40:08;;;;;;;19.88;7.00;;;;;;;20.33;57.96;96262.56;10400127;28;20046;-54
2023/05/15 21:45:28;;;;;;;18.77;6.63;;;;;;;20.30;58.00;96255.91;10393076;28;20100;-53
2023/05/15 21:50:48;;;;;;;18.40;6.68;;;;;;;20.30;58.10;96257.81;10417355;28;20054;-54
2023/05/15 21:56:08;;;;;;;18.80;6.47;;;;;;;20.30;58.09;96263.22;10412499;28;20056;-54
2023/05/15 22:01:28;;;;;;;17.92;5.78;;;;;;;20.30;58.16;96276.75;10394589;28;20065;-54
2023/05/15 22:06:48;;;;;;;16.48;5.90;;;;;;;20.30;58.09;96293.75;10412336;28;20042;-54
2023/05/15 22:12:09;;;;;;;16.50;6.10;;;;;;;20.29;57.98;96289.50;10427734;28;20505;-54
2023/05/15 22:17:29;;;;;;;14.27;4.97;;;;;;;20.27;57.93;96291.75;10427507;28;20068;-54
2023/05/15 22:22:48;;;;;;;10.50;3.67;;;;;;;20.28;58.03;96292.53;10380553;28;20060;-54
2023/05/15 22:28:08;;;;;;;3.67;1.83;;;;;;;20.27;58.28;96302.56;10386608;28;20037;-54
2023/05/15 22:33:27;;;;;;;5.63;2.22;;;;;;;20.27;58.29;96304.50;10387099;28;20494;-54
2023/05/15 22:38:47;;;;;;;5.22;2.47;;;;;;;20.26;58.51;96311.03;10389986;28;20050;-55
2023/05/15 22:44:06;;;;;;;7.57;3.03;;;;;;;20.26;58.65;96313.72;10413205;28;20041;-54
2023/05/15 22:49:26;;;;;;;9.05;4.47;;;;;;;20.25;58.80;96317.56;10405006;28;20541;-55
2023/05/15 22:54:45;;;;;;;11.75;4.68;;;;;;;20.24;58.79;96314.06;10400477;28;20076;-55
2023/05/15 23:00:06;;;;;;;10.55;4.60;;;;;;;20.23;58.75;96322.50;10426400;28;20494;-54
2023/05/15 23:05:26;;;;;;;11.73;4.55;;;;;;;20.23;58.75;96323.31;10396408;28;20054;-54
2023/05/15 23:10:46;;;;;;;10.52;4.90;;;;;;;20.22;58.82;96327.13;10437492;28;20235;-54
2023/05/15 23:16:06;;;;;;;9.77;4.30;;;;;;;20.21;58.96;96325.56;10439669;28;20088;-54
2023/05/15 23:21:25;;;;;;;10.73;4.45;;;;;;;20.21;58.87;96331.00;10439714;28;20041;-55
2023/05/15 23:26:45;;;;;;;9.23;4.20;;;;;;;20.20;59.07;96334.81;10423365;28;20489;-55
2023/05/15 23:32:06;;;;;;;12.27;4.65;;;;;;;20.20;58.95;96336.72;10401682;28;20405;-54
2023/05/15 23:37:25;;;;;;;9.93;4.50;;;;;;;20.19;58.90;96332.44;10399254;28;20045;-54
2023/05/15 23:42:45;;;;;;;8.85;4.20;;;;;;;20.19;58.82;96349.47;10436005;28;20060;-54
2023/05/15 23:48:05;;;;;;;9.38;4.43;;;;;;;20.17;58.98;96351.72;10437598;28;20111;-54
2023/05/15 23:53:24;;;;;;;7.65;3.85;;;;;;;20.16;58.87;96360.94;10439100;28;20042;-54
2023/05/15 23:58:44;;;;;;;9.52;4.35;;;;;;;20.15;58.64;96353.97;10438858;28;20045;-54
